Pelagos — SZSW — position and weather

sailwx.info

Track history (hours):
 
Tides and Currents Weather Stations Pressure Air Temp Water Temp Dewpoint Dewpoint Depression Visibility Wind Speed Wind Dir Waves Ship Positions

Pelagos

Last reported at 2015-May-22 05:07 UTC. Time now 2015-May-24 23:18 UTC.
Position N 36°29' E 015°14'.

Length 249 m; draft 13.8 m.

Type: Ship. MMSI: 240335000.

Date/timePositionNaut miles runAvg speedWind from/ knotsBaromVisibWave heightAir tempDewpointWater temp
2015-May-22 05:07N 36°29' E 015°14'2911.3
2015-May-22 02:33N 36°25' E 014°39'1111.4
2015-May-22 01:33N 36°28' E 014°25'1211.6
2015-May-22 00:34N 36°31' E 014°11'1211.6
2015-May-21 23:33N 36°35' E 013°57'1211.6
2015-May-21 22:33N 36°39' E 013°44'1611.7
2015-May-21 21:12N 36°43' E 013°25'4511.5
2015-May-21 17:18N 36°56' E 012°31'1011.3
2015-May-21 16:28N 36°59' E 012°20'53610.9
2015-May-19 15:29N 36°51' E 001°09'1411.2
2015-May-19 14:16N 36°48' E 000°53'1911.1
2015-May-19 12:33N 36°44' E 000°29'1111.0
2015-May-19 11:33N 36°42' E 000°16'1210.8
2015-May-19 10:26N 36°40' E 000°01'1410.6
2015-May-19 09:03N 36°37' W 000°17'611.6
2015-May-19 08:33N 36°35' W 000°24'1414.4
2015-May-19 07:33N 36°32' W 000°41'1613.8
2015-May-19 06:25N 36°29' W 001°00'3211.2
2015-May-19 03:32N 36°22' W 001°40'1111.2
2015-May-19 02:33N 36°20' W 001°53'1110.8
2015-May-19 01:33N 36°18' W 002°06'1110.7
2015-May-19 00:30N 36°17' W 002°20'1010.9
2015-May-18 23:33N 36°16' W 002°33'1210.6
2015-May-18 22:26N 36°14' W 002°47'12211.3
2015-May-18 11:34N 35°59' W 005°18'188 9.9
2015-May-17 16:32N 36°28' W 009°09'1110.9
2015-May-17 15:32N 36°31' W 009°22'1111.3
2015-May-17 14:33N 36°39' W 009°31'1111.0
2015-May-17 13:33N 36°48' W 009°39'1111.3
2015-May-17 12:33N 36°59' W 009°42'1211.5
2015-May-17 11:33N 37°11' W 009°45'1211.6
2015-May-17 10:33N 37°22' W 009°48'1211.8
2015-May-17 09:33N 37°33' W 009°52'1211.7
2015-May-17 08:33N 37°45' W 009°55'1211.5
2015-May-17 07:33N 37°56' W 009°58'1111.4
2015-May-17 06:33N 38°07' W 010°02'1111.4
2015-May-17 05:33N 38°18' W 010°05'1111.3
2015-May-17 04:33N 38°29' W 010°08'1111.2
2015-May-17 03:32N 38°40' W 010°11'1110.9
2015-May-17 02:34N 38°51' W 010°12'1111.2
2015-May-17 01:33N 39°02' W 010°12'1111.3
2015-May-17 00:33N 39°14' W 010°12'  
2015-May-13 20:31N 49°49' W 003°27'1212.5
2015-May-13 19:33N 49°54' W 003°10'1212.1
2015-May-13 18:33N 49°59' W 002°53'1111.3
2015-May-13 17:33N 50°02' W 002°36'1010.3
2015-May-13 16:33N 50°05' W 002°20'9 9.4
2015-May-13 15:33N 50°08' W 002°06'10 9.2
2015-May-13 14:30N 50°10' W 001°52'3311.2
2015-May-13 11:33N 50°19' W 001°02'1413.5
2015-May-13 10:33N 50°23' W 000°41'1713.3
2015-May-13 09:16N 50°28' W 000°16'1012.7
2015-May-13 08:30N 50°31' W 000°01'1212.3
2015-May-13 07:33N 50°34' E 000°17'1211.6
2015-May-13 06:33N 50°37' E 000°34'1111.0
2015-May-13 05:33N 50°44' E 000°48'1110.9
2015-May-13 04:33N 50°50' E 001°02'1211.5
2015-May-13 03:31N 50°58' E 001°16'1313.5
2015-May-13 02:34N 51°06' E 001°32'1414.3
2015-May-13 01:33N 51°17' E 001°48'1313.2
2015-May-13 00:33N 51°28' E 001°58'1212.4
2015-May-12 23:33N 51°37' E 002°12'1211.6
2015-May-12 22:33N 51°46' E 002°25'1110.2
2015-May-12 21:28N 51°55' E 002°35'19 9.8
2015-May-12 19:29N 52°14' E 002°40'1010.7
2015-May-12 18:33N 52°23' E 002°47'2311.6
2015-May-12 16:33N 52°43' E 003°05'  
Track history (hours):
 
Tides and Currents Weather Stations Pressure Air Temp Water Temp Dewpoint Dewpoint Depression Visibility Wind Speed Wind Dir Waves Ship Positions

Pelagos

Last reported at 2015-May-22 05:07 UTC. Time now 2015-May-24 23:18 UTC.
Position N 36°29' E 015°14'.

Length 249 m; draft 13.8 m.

Type: Ship. MMSI: 240335000.

Date/timePositionNaut miles runAvg speedWind from/ knotsBaromVisibWave heightAir tempDewpointWater temp
2015-May-22 05:07N 36°29' E 015°14'2911.3
2015-May-22 02:33N 36°25' E 014°39'1111.4
2015-May-22 01:33N 36°28' E 014°25'1211.6
2015-May-22 00:34N 36°31' E 014°11'1211.6
2015-May-21 23:33N 36°35' E 013°57'1211.6
2015-May-21 22:33N 36°39' E 013°44'1611.7
2015-May-21 21:12N 36°43' E 013°25'4511.5
2015-May-21 17:18N 36°56' E 012°31'1011.3
2015-May-21 16:28N 36°59' E 012°20'53610.9
2015-May-19 15:29N 36°51' E 001°09'1411.2
2015-May-19 14:16N 36°48' E 000°53'1911.1
2015-May-19 12:33N 36°44' E 000°29'1111.0
2015-May-19 11:33N 36°42' E 000°16'1210.8
2015-May-19 10:26N 36°40' E 000°01'1410.6
2015-May-19 09:03N 36°37' W 000°17'611.6
2015-May-19 08:33N 36°35' W 000°24'1414.4
2015-May-19 07:33N 36°32' W 000°41'1613.8
2015-May-19 06:25N 36°29' W 001°00'3211.2
2015-May-19 03:32N 36°22' W 001°40'1111.2
2015-May-19 02:33N 36°20' W 001°53'1110.8
2015-May-19 01:33N 36°18' W 002°06'1110.7
2015-May-19 00:30N 36°17' W 002°20'1010.9
2015-May-18 23:33N 36°16' W 002°33'1210.6
2015-May-18 22:26N 36°14' W 002°47'12211.3
2015-May-18 11:34N 35°59' W 005°18'188 9.9
2015-May-17 16:32N 36°28' W 009°09'1110.9
2015-May-17 15:32N 36°31' W 009°22'1111.3
2015-May-17 14:33N 36°39' W 009°31'1111.0
2015-May-17 13:33N 36°48' W 009°39'1111.3
2015-May-17 12:33N 36°59' W 009°42'1211.5
2015-May-17 11:33N 37°11' W 009°45'1211.6
2015-May-17 10:33N 37°22' W 009°48'1211.8
2015-May-17 09:33N 37°33' W 009°52'1211.7
2015-May-17 08:33N 37°45' W 009°55'1211.5
2015-May-17 07:33N 37°56' W 009°58'1111.4
2015-May-17 06:33N 38°07' W 010°02'1111.4
2015-May-17 05:33N 38°18' W 010°05'1111.3
2015-May-17 04:33N 38°29' W 010°08'1111.2
2015-May-17 03:32N 38°40' W 010°11'1110.9
2015-May-17 02:34N 38°51' W 010°12'1111.2
2015-May-17 01:33N 39°02' W 010°12'1111.3
2015-May-17 00:33N 39°14' W 010°12'  
2015-May-13 20:31N 49°49' W 003°27'1212.5
2015-May-13 19:33N 49°54' W 003°10'1212.1
2015-May-13 18:33N 49°59' W 002°53'1111.3
2015-May-13 17:33N 50°02' W 002°36'1010.3
2015-May-13 16:33N 50°05' W 002°20'9 9.4
2015-May-13 15:33N 50°08' W 002°06'10 9.2
2015-May-13 14:30N 50°10' W 001°52'3311.2
2015-May-13 11:33N 50°19' W 001°02'1413.5
2015-May-13 10:33N 50°23' W 000°41'1713.3
2015-May-13 09:16N 50°28' W 000°16'1012.7
2015-May-13 08:30N 50°31' W 000°01'1212.3
2015-May-13 07:33N 50°34' E 000°17'1211.6
2015-May-13 06:33N 50°37' E 000°34'1111.0
2015-May-13 05:33N 50°44' E 000°48'1110.9
2015-May-13 04:33N 50°50' E 001°02'1211.5
2015-May-13 03:31N 50°58' E 001°16'1313.5
2015-May-13 02:34N 51°06' E 001°32'1414.3
2015-May-13 01:33N 51°17' E 001°48'1313.2
2015-May-13 00:33N 51°28' E 001°58'1212.4
2015-May-12 23:33N 51°37' E 002°12'1211.6
2015-May-12 22:33N 51°46' E 002°25'1110.2
2015-May-12 21:28N 51°55' E 002°35'19 9.8
2015-May-12 19:29N 52°14' E 002°40'1010.7
2015-May-12 18:33N 52°23' E 002°47'2311.6
2015-May-12 16:33N 52°43' E 003°05'  

Dump ship's entire track history